sensor_id;sensor_type;location;lat;lon;timestamp;pressure;altitude;pressure_sealevel;temperature;humidity
7774;BME280;3931;42.260;23.116;2022-09-19T00:00:54;95606.53;;;18.30;52.70
7774;BME280;3931;42.260;23.116;2022-09-19T00:03:20;95615.31;;;17.65;53.14
7774;BME280;3931;42.260;23.116;2022-09-19T00:05:46;95606.72;;;17.68;53.49
7774;BME280;3931;42.260;23.116;2022-09-19T00:08:12;95606.66;;;18.06;52.28
7774;BME280;3931;42.260;23.116;2022-09-19T00:10:39;95593.69;;;17.51;52.80
7774;BME280;3931;42.260;23.116;2022-09-19T00:13:06;95583.34;;;17.57;52.95
7774;BME280;3931;42.260;23.116;2022-09-19T00:15:34;95581.66;;;17.74;52.54
7774;BME280;3931;42.260;23.116;2022-09-19T00:18:01;95581.47;;;17.39;53.81
7774;BME280;3931;42.260;23.116;2022-09-19T00:20:27;95583.50;;;17.91;52.80
7774;BME280;3931;42.260;23.116;2022-09-19T00:22:53;95574.13;;;17.65;53.03
7774;BME280;3931;42.260;23.116;2022-09-19T00:25:34;95574.22;;;18.00;52.21
7774;BME280;3931;42.260;23.116;2022-09-19T00:28:00;95573.75;;;17.87;52.72
7774;BME280;3931;42.260;23.116;2022-09-19T00:30:26;95564.50;;;17.42;53.01
7774;BME280;3931;42.260;23.116;2022-09-19T00:32:52;95564.28;;;17.70;52.66
7774;BME280;3931;42.260;23.116;2022-09-19T00:35:19;95567.47;;;18.06;52.18
7774;BME280;3931;42.260;23.116;2022-09-19T00:37:45;95569.66;;;18.17;51.42
7774;BME280;3931;42.260;23.116;2022-09-19T00:40:11;95564.88;;;18.03;51.89
7774;BME280;3931;42.260;23.116;2022-09-19T00:42:38;95570.56;;;17.94;52.51
7774;BME280;3931;42.260;23.116;2022-09-19T00:45:12;95575.88;;;17.92;52.35
7774;BME280;3931;42.260;23.116;2022-09-19T00:47:40;95571.44;;;18.00;52.26
7774;BME280;3931;42.260;23.116;2022-09-19T00:50:14;95566.81;;;17.82;53.04
7774;BME280;3931;42.260;23.116;2022-09-19T00:52:47;95566.91;;;18.02;52.48
7774;BME280;3931;42.260;23.116;2022-09-19T00:55:15;95574.22;;;18.29;51.74
7774;BME280;3931;42.260;23.116;2022-09-19T00:57:50;95573.53;;;18.19;52.26
7774;BME280;3931;42.260;23.116;2022-09-19T01:00:18;95566.69;;;17.62;52.83
7774;BME280;3931;42.260;23.116;2022-09-19T01:02:44;95565.63;;;17.21;54.01
7774;BME280;3931;42.260;23.116;2022-09-19T01:05:12;95562.28;;;17.46;53.98
7774;BME280;3931;42.260;23.116;2022-09-19T01:07:50;95563.25;;;17.43;53.23
7774;BME280;3931;42.260;23.116;2022-09-19T01:10:35;95560.84;;;16.98;53.90
7774;BME280;3931;42.260;23.116;2022-09-19T01:13:11;95568.66;;;17.09;54.29
7774;BME280;3931;42.260;23.116;2022-09-19T01:15:44;95560.59;;;17.25;53.66
7774;BME280;3931;42.260;23.116;2022-09-19T01:18:15;95572.78;;;16.75;54.96
7774;BME280;3931;42.260;23.116;2022-09-19T01:20:57;95575.03;;;16.62;55.00
7774;BME280;3931;42.260;23.116;2022-09-19T01:23:58;95570.47;;;16.97;54.38
7774;BME280;3931;42.260;23.116;2022-09-19T01:26:40;95572.41;;;17.29;53.93
7774;BME280;3931;42.260;23.116;2022-09-19T01:29:14;95576.31;;;16.43;54.98
7774;BME280;3931;42.260;23.116;2022-09-19T01:31:46;95571.69;;;16.40;54.94
7774;BME280;3931;42.260;23.116;2022-09-19T01:34:15;95568.81;;;16.67;55.29
7774;BME280;3931;42.260;23.116;2022-09-19T01:36:46;95562.50;;;16.16;55.23
7774;BME280;3931;42.260;23.116;2022-09-19T01:39:17;95562.19;;;16.46;55.03
7774;BME280;3931;42.260;23.116;2022-09-19T01:41:47;95570.63;;;16.04;55.54
7774;BME280;3931;42.260;23.116;2022-09-19T01:44:16;95557.19;;;16.59;54.38
7774;BME280;3931;42.260;23.116;2022-09-19T01:46:50;95553.09;;;16.69;53.85
7774;BME280;3931;42.260;23.116;2022-09-19T01:49:28;95555.28;;;16.65;53.74
7774;BME280;3931;42.260;23.116;2022-09-19T01:52:02;95549.03;;;16.94;53.67
7774;BME280;3931;42.260;23.116;2022-09-19T01:54:40;95545.19;;;16.92;54.27
7774;BME280;3931;42.260;23.116;2022-09-19T01:57:17;95542.22;;;17.48;56.07
7774;BME280;3931;42.260;23.116;2022-09-19T01:59:53;95551.63;;;17.60;55.70
7774;BME280;3931;42.260;23.116;2022-09-19T02:02:31;95552.88;;;17.88;53.75
7774;BME280;3931;42.260;23.116;2022-09-19T02:05:05;95562.53;;;17.72;52.92
7774;BME280;3931;42.260;23.116;2022-09-19T02:07:40;95554.03;;;17.52;54.99
7774;BME280;3931;42.260;23.116;2022-09-19T02:10:15;95550.78;;;17.83;53.36
7774;BME280;3931;42.260;23.116;2022-09-19T02:12:43;95555.59;;;17.68;54.47
7774;BME280;3931;42.260;23.116;2022-09-19T02:15:11;95570.19;;;17.48;53.90
7774;BME280;3931;42.260;23.116;2022-09-19T02:17:43;95561.66;;;17.52;54.51
7774;BME280;3931;42.260;23.116;2022-09-19T02:20:18;95552.53;;;17.27;54.88
7774;BME280;3931;42.260;23.116;2022-09-19T02:22:48;95553.88;;;17.85;53.94
7774;BME280;3931;42.260;23.116;2022-09-19T02:25:19;95554.63;;;17.71;53.76
7774;BME280;3931;42.260;23.116;2022-09-19T02:27:50;95549.63;;;17.60;53.59
7774;BME280;3931;42.260;23.116;2022-09-19T02:30:19;95547.00;;;17.57;53.80
7774;BME280;3931;42.260;23.116;2022-09-19T02:32:46;95544.22;;;17.71;52.78
7774;BME280;3931;42.260;23.116;2022-09-19T02:35:14;95534.63;;;17.48;53.87
7774;BME280;3931;42.260;23.116;2022-09-19T02:37:44;95541.91;;;17.84;53.53
7774;BME280;3931;42.260;23.116;2022-09-19T02:40:18;95544.69;;;17.55;53.27
7774;BME280;3931;42.260;23.116;2022-09-19T02:42:48;95551.03;;;17.17;53.90
7774;BME280;3931;42.260;23.116;2022-09-19T02:45:20;95552.63;;;16.95;54.45
7774;BME280;3931;42.260;23.116;2022-09-19T02:47:55;95549.25;;;17.43;54.41
7774;BME280;3931;42.260;23.116;2022-09-19T02:50:28;95546.69;;;17.55;53.79
7774;BME280;3931;42.260;23.116;2022-09-19T02:52:57;95552.63;;;17.33;53.01
7774;BME280;3931;42.260;23.116;2022-09-19T02:55:27;95546.44;;;17.29;52.55
7774;BME280;3931;42.260;23.116;2022-09-19T02:57:58;95542.44;;;17.44;53.82
7774;BME280;3931;42.260;23.116;2022-09-19T03:00:29;95539.44;;;17.48;53.73
7774;BME280;3931;42.260;23.116;2022-09-19T03:03:00;95541.50;;;17.77;53.01
7774;BME280;3931;42.260;23.116;2022-09-19T03:05:49;95544.72;;;17.31;53.12
7774;BME280;3931;42.260;23.116;2022-09-19T03:08:18;95542.28;;;16.62;53.95
7774;BME280;3931;42.260;23.116;2022-09-19T03:10:52;95545.13;;;16.77;53.21
7774;BME280;3931;42.260;23.116;2022-09-19T03:13:22;95542.09;;;16.66;53.40
7774;BME280;3931;42.260;23.116;2022-09-19T03:15:53;95536.28;;;16.46;53.33
7774;BME280;3931;42.260;23.116;2022-09-19T03:18:23;95535.13;;;16.61;53.79
7774;BME280;3931;42.260;23.116;2022-09-19T03:20:54;95545.47;;;16.70;53.77
7774;BME280;3931;42.260;23.116;2022-09-19T03:23:25;95535.56;;;16.93;52.87
7774;BME280;3931;42.260;23.116;2022-09-19T03:25:53;95535.50;;;16.54;53.41
7774;BME280;3931;42.260;23.116;2022-09-19T03:28:19;95536.19;;;16.88;52.99
7774;BME280;3931;42.260;23.116;2022-09-19T03:30:47;95539.00;;;16.64;53.13
7774;BME280;3931;42.260;23.116;2022-09-19T03:33:14;95540.94;;;16.49;53.29
7774;BME280;3931;42.260;23.116;2022-09-19T03:35:41;95534.84;;;16.59;53.62
7774;BME280;3931;42.260;23.116;2022-09-19T03:38:07;95530.94;;;16.33;54.27
7774;BME280;3931;42.260;23.116;2022-09-19T03:40:34;95532.25;;;16.14;54.70
7774;BME280;3931;42.260;23.116;2022-09-19T03:43:00;95527.91;;;16.46;53.49
7774;BME280;3931;42.260;23.116;2022-09-19T03:45:26;95528.06;;;16.75;53.12
7774;BME280;3931;42.260;23.116;2022-09-19T03:47:52;95534.38;;;16.28;54.14
7774;BME280;3931;42.260;23.116;2022-09-19T03:50:19;95530.78;;;15.44;55.62
7774;BME280;3931;42.260;23.116;2022-09-19T03:52:45;95530.66;;;15.80;56.10
7774;BME280;3931;42.260;23.116;2022-09-19T03:55:14;95528.16;;;16.33;54.35
7774;BME280;3931;42.260;23.116;2022-09-19T03:57:40;95525.31;;;16.42;54.20
7774;BME280;3931;42.260;23.116;2022-09-19T04:00:08;95525.59;;;16.53;54.33
7774;BME280;3931;42.260;23.116;2022-09-19T04:02:34;95528.47;;;16.59;54.08
7774;BME280;3931;42.260;23.116;2022-09-19T04:05:01;95522.22;;;16.40;53.98
7774;BME280;3931;42.260;23.116;2022-09-19T04:07:28;95525.66;;;16.35;53.84
7774;BME280;3931;42.260;23.116;2022-09-19T04:09:54;95521.59;;;16.36;54.40
7774;BME280;3931;42.260;23.116;2022-09-19T04:12:20;95523.44;;;16.39;54.19
7774;BME280;3931;42.260;23.116;2022-09-19T04:14:46;95521.06;;;16.56;54.35
7774;BME280;3931;42.260;23.116;2022-09-19T04:17:13;95530.50;;;16.49;53.28
7774;BME280;3931;42.260;23.116;2022-09-19T04:19:39;95520.13;;;16.50;53.48
7774;BME280;3931;42.260;23.116;2022-09-19T04:22:05;95515.31;;;16.27;54.22
7774;BME280;3931;42.260;23.116;2022-09-19T04:24:32;95531.09;;;16.30;54.23
7774;BME280;3931;42.260;23.116;2022-09-19T04:26:58;95530.88;;;16.51;53.69
7774;BME280;3931;42.260;23.116;2022-09-19T04:29:25;95529.91;;;16.54;53.44
7774;BME280;3931;42.260;23.116;2022-09-19T04:31:53;95534.50;;;16.66;54.23
7774;BME280;3931;42.260;23.116;2022-09-19T04:34:20;95530.97;;;17.04;55.89
7774;BME280;3931;42.260;23.116;2022-09-19T04:36:46;95537.06;;;16.46;55.03
7774;BME280;3931;42.260;23.116;2022-09-19T04:39:17;95532.94;;;16.65;56.46
7774;BME280;3931;42.260;23.116;2022-09-19T04:41:43;95540.66;;;16.94;55.16
7774;BME280;3931;42.260;23.116;2022-09-19T04:44:10;95542.16;;;16.57;54.49
7774;BME280;3931;42.260;23.116;2022-09-19T04:46:37;95538.28;;;16.22;56.30
7774;BME280;3931;42.260;23.116;2022-09-19T04:49:06;95555.19;;;16.84;55.21
7774;BME280;3931;42.260;23.116;2022-09-19T04:51:33;95549.59;;;16.84;54.25
7774;BME280;3931;42.260;23.116;2022-09-19T04:53:59;95549.81;;;16.95;54.50
7774;BME280;3931;42.260;23.116;2022-09-19T04:56:27;95545.00;;;17.33;53.29
7774;BME280;3931;42.260;23.116;2022-09-19T04:58:54;95548.25;;;17.17;52.63
7774;BME280;3931;42.260;23.116;2022-09-19T05:01:20;95549.03;;;16.94;53.12
7774;BME280;3931;42.260;23.116;2022-09-19T05:03:46;95546.53;;;17.20;53.34
7774;BME280;3931;42.260;23.116;2022-09-19T05:06:13;95552.50;;;17.66;53.32
7774;BME280;3931;42.260;23.116;2022-09-19T05:08:40;95555.41;;;17.86;51.93
7774;BME280;3931;42.260;23.116;2022-09-19T05:11:07;95553.75;;;17.79;51.47
7774;BME280;3931;42.260;23.116;2022-09-19T05:13:35;95550.03;;;17.29;52.91
7774;BME280;3931;42.260;23.116;2022-09-19T05:16:05;95549.47;;;16.13;53.98
7774;BME280;3931;42.260;23.116;2022-09-19T05:18:31;95547.66;;;16.90;54.63
7774;BME280;3931;42.260;23.116;2022-09-19T05:21:03;95551.91;;;17.62;53.31
7774;BME280;3931;42.260;23.116;2022-09-19T05:23:29;95549.59;;;18.18;51.78
7774;BME280;3931;42.260;23.116;2022-09-19T05:25:55;95553.00;;;17.26;53.47
7774;BME280;3931;42.260;23.116;2022-09-19T05:28:22;95551.25;;;17.96;51.94
7774;BME280;3931;42.260;23.116;2022-09-19T05:30:53;95546.47;;;17.43;52.92
7774;BME280;3931;42.260;23.116;2022-09-19T05:33:21;95549.00;;;18.14;51.75
7774;BME280;3931;42.260;23.116;2022-09-19T05:35:51;95553.19;;;17.61;51.58
7774;BME280;3931;42.260;23.116;2022-09-19T05:38:17;95557.31;;;18.23;51.61
7774;BME280;3931;42.260;23.116;2022-09-19T05:40:43;95557.34;;;17.27;52.65
7774;BME280;3931;42.260;23.116;2022-09-19T05:43:09;95557.34;;;17.65;53.03
7774;BME280;3931;42.260;23.116;2022-09-19T05:45:36;95556.06;;;17.52;52.62
7774;BME280;3931;42.260;23.116;2022-09-19T05:48:05;95557.44;;;17.71;52.60
7774;BME280;3931;42.260;23.116;2022-09-19T05:50:32;95550.81;;;17.44;53.40
7774;BME280;3931;42.260;23.116;2022-09-19T05:52:59;95561.13;;;17.38;52.79
7774;BME280;3931;42.260;23.116;2022-09-19T05:55:43;95558.09;;;17.66;52.43
7774;BME280;3931;42.260;23.116;2022-09-19T05:58:09;95563.25;;;17.43;52.97
7774;BME280;3931;42.260;23.116;2022-09-19T06:00:36;95567.25;;;17.52;53.30
7774;BME280;3931;42.260;23.116;2022-09-19T06:03:04;95550.97;;;17.65;52.55
7774;BME280;3931;42.260;23.116;2022-09-19T06:05:38;95564.06;;;18.46;52.21
7774;BME280;3931;42.260;23.116;2022-09-19T06:08:04;95566.22;;;18.07;52.03
7774;BME280;3931;42.260;23.116;2022-09-19T06:10:33;95556.94;;;18.16;52.10
7774;BME280;3931;42.260;23.116;2022-09-19T06:12:59;95556.88;;;18.60;51.61
7774;BME280;3931;42.260;23.116;2022-09-19T06:15:25;95559.00;;;18.50;51.75
7774;BME280;3931;42.260;23.116;2022-09-19T06:17:53;95553.28;;;18.10;51.92
7774;BME280;3931;42.260;23.116;2022-09-19T06:20:19;95547.00;;;18.64;51.36
7774;BME280;3931;42.260;23.116;2022-09-19T06:22:46;95550.34;;;19.03;50.70
7774;BME280;3931;42.260;23.116;2022-09-19T06:25:13;95549.81;;;18.64;50.50
7774;BME280;3931;42.260;23.116;2022-09-19T06:27:39;95550.94;;;19.13;50.40
7774;BME280;3931;42.260;23.116;2022-09-19T06:30:09;95539.13;;;18.48;51.31
7774;BME280;3931;42.260;23.116;2022-09-19T06:32:37;95551.75;;;18.58;51.17
7774;BME280;3931;42.260;23.116;2022-09-19T06:35:04;95538.88;;;19.27;49.98
7774;BME280;3931;42.260;23.116;2022-09-19T06:37:30;95554.63;;;18.99;50.71
7774;BME280;3931;42.260;23.116;2022-09-19T06:39:57;95543.66;;;18.80;50.80
7774;BME280;3931;42.260;23.116;2022-09-19T06:42:23;95551.56;;;19.37;49.97
7774;BME280;3931;42.260;23.116;2022-09-19T06:44:49;95546.16;;;20.10;49.01
7774;BME280;3931;42.260;23.116;2022-09-19T06:47:16;95546.81;;;20.25;48.56
7774;BME280;3931;42.260;23.116;2022-09-19T06:49:42;95538.16;;;20.29;48.31
7774;BME280;3931;42.260;23.116;2022-09-19T06:52:08;95542.22;;;20.59;48.26
7774;BME280;3931;42.260;23.116;2022-09-19T06:54:34;95548.41;;;20.69;47.44
7774;BME280;3931;42.260;23.116;2022-09-19T06:57:01;95540.28;;;20.40;47.63
7774;BME280;3931;42.260;23.116;2022-09-19T06:59:27;95536.78;;;20.98;46.86
7774;BME280;3931;42.260;23.116;2022-09-19T07:01:53;95546.00;;;20.98;46.73
7774;BME280;3931;42.260;23.116;2022-09-19T07:04:19;95545.41;;;20.78;47.23
7774;BME280;3931;42.260;23.116;2022-09-19T07:06:46;95538.34;;;20.99;47.04
7774;BME280;3931;42.260;23.116;2022-09-19T07:09:12;95551.63;;;21.52;45.48
7774;BME280;3931;42.260;23.116;2022-09-19T07:11:38;95543.44;;;21.54;45.68
7774;BME280;3931;42.260;23.116;2022-09-19T07:14:05;95541.28;;;22.46;44.14
7774;BME280;3931;42.260;23.116;2022-09-19T07:16:31;95535.91;;;22.76;44.10
7774;BME280;3931;42.260;23.116;2022-09-19T07:18:57;95537.81;;;23.26;42.68
7774;BME280;3931;42.260;23.116;2022-09-19T07:21:23;95537.47;;;23.46;41.54
7774;BME280;3931;42.260;23.116;2022-09-19T07:23:50;95534.38;;;22.31;43.11
7774;BME280;3931;42.260;23.116;2022-09-19T07:26:16;95525.56;;;23.69;42.14
7774;BME280;3931;42.260;23.116;2022-09-19T07:28:42;95530.91;;;23.15;42.11
7774;BME280;3931;42.260;23.116;2022-09-19T07:31:09;95526.28;;;23.81;41.71
7774;BME280;3931;42.260;23.116;2022-09-19T07:33:35;95522.25;;;24.06;40.98
7774;BME280;3931;42.260;23.116;2022-09-19T07:36:01;95522.28;;;24.36;40.18
7774;BME280;3931;42.260;23.116;2022-09-19T07:38:27;95515.88;;;24.89;39.26
7774;BME280;3931;42.260;23.116;2022-09-19T07:40:53;95516.38;;;24.63;39.08
7774;BME280;3931;42.260;23.116;2022-09-19T07:43:20;95520.50;;;24.33;38.36
7774;BME280;3931;42.260;23.116;2022-09-19T07:45:48;95511.22;;;24.38;38.30
7774;BME280;3931;42.260;23.116;2022-09-19T07:48:16;95515.19;;;24.83;38.91
7774;BME280;3931;42.260;23.116;2022-09-19T07:50:43;95509.75;;;25.89;36.96
7774;BME280;3931;42.260;23.116;2022-09-19T07:53:11;95512.44;;;25.02;38.55
7774;BME280;3931;42.260;23.116;2022-09-19T07:55:37;95507.78;;;25.66;38.01
7774;BME280;3931;42.260;23.116;2022-09-19T07:58:04;95497.09;;;25.34;36.95
7774;BME280;3931;42.260;23.116;2022-09-19T08:00:32;95501.97;;;26.72;36.93
7774;BME280;3931;42.260;23.116;2022-09-19T08:03:00;95498.47;;;26.02;37.01
7774;BME280;3931;42.260;23.116;2022-09-19T08:05:29;95495.34;;;26.06;35.79
7774;BME280;3931;42.260;23.116;2022-09-19T08:07:58;95498.41;;;25.89;36.84
7774;BME280;3931;42.260;23.116;2022-09-19T08:10:24;95491.81;;;26.19;37.37
7774;BME280;3931;42.260;23.116;2022-09-19T08:12:50;95481.41;;;27.37;35.06
7774;BME280;3931;42.260;23.116;2022-09-19T08:15:17;95477.78;;;26.84;35.53
7774;BME280;3931;42.260;23.116;2022-09-19T08:17:54;95467.84;;;26.33;35.73
7774;BME280;3931;42.260;23.116;2022-09-19T08:20:20;95470.25;;;26.73;35.84
7774;BME280;3931;42.260;23.116;2022-09-19T08:22:47;95462.50;;;27.13;35.33
7774;BME280;3931;42.260;23.116;2022-09-19T08:25:13;95458.56;;;26.90;35.63
7774;BME280;3931;42.260;23.116;2022-09-19T08:27:43;95457.81;;;26.45;36.11
7774;BME280;3931;42.260;23.116;2022-09-19T08:30:09;95454.34;;;26.52;36.23
7774;BME280;3931;42.260;23.116;2022-09-19T08:32:35;95458.56;;;26.77;35.95
7774;BME280;3931;42.260;23.116;2022-09-19T08:35:02;95450.59;;;26.76;36.23
7774;BME280;3931;42.260;23.116;2022-09-19T08:37:28;95450.78;;;27.30;36.17
7774;BME280;3931;42.260;23.116;2022-09-19T08:39:56;95447.16;;;27.56;35.47
7774;BME280;3931;42.260;23.116;2022-09-19T08:42:44;95447.00;;;27.74;36.11
7774;BME280;3931;42.260;23.116;2022-09-19T08:45:21;95438.47;;;28.70;33.74
7774;BME280;3931;42.260;23.116;2022-09-19T08:47:51;95445.53;;;28.76;33.83
7774;BME280;3931;42.260;23.116;2022-09-19T08:50:21;95433.84;;;28.88;32.99
7774;BME280;3931;42.260;23.116;2022-09-19T08:52:49;95435.03;;;27.55;34.82
7774;BME280;3931;42.260;23.116;2022-09-19T08:55:20;95433.13;;;28.04;34.48
7774;BME280;3931;42.260;23.116;2022-09-19T08:57:51;95430.47;;;27.39;34.85
7774;BME280;3931;42.260;23.116;2022-09-19T09:00:20;95429.03;;;27.45;34.69
7774;BME280;3931;42.260;23.116;2022-09-19T09:02:54;95419.94;;;28.14;34.64
7774;BME280;3931;42.260;23.116;2022-09-19T09:05:29;95411.03;;;27.97;34.44
7774;BME280;3931;42.260;23.116;2022-09-19T09:08:03;95408.75;;;28.58;34.09
7774;BME280;3931;42.260;23.116;2022-09-19T09:10:41;95389.13;;;29.11;32.98
7774;BME280;3931;42.260;23.116;2022-09-19T09:13:20;95383.03;;;30.23;32.43
7774;BME280;3931;42.260;23.116;2022-09-19T09:15:59;95391.75;;;28.24;33.70
7774;BME280;3931;42.260;23.116;2022-09-19T09:18:38;95392.53;;;27.70;33.39
7774;BME280;3931;42.260;23.116;2022-09-19T09:21:15;95380.03;;;29.55;31.45
7774;BME280;3931;42.260;23.116;2022-09-19T09:23:45;95378.88;;;30.32;30.85
7774;BME280;3931;42.260;23.116;2022-09-19T09:26:15;95370.97;;;27.75;31.64
7774;BME280;3931;42.260;23.116;2022-09-19T09:28:46;95368.97;;;29.01;31.39
7774;BME280;3931;42.260;23.116;2022-09-19T09:31:18;95360.94;;;29.28;30.52
7774;BME280;3931;42.260;23.116;2022-09-19T09:33:53;95374.44;;;27.13;32.93
7774;BME280;3931;42.260;23.116;2022-09-19T09:36:27;95363.66;;;28.00;33.12
7774;BME280;3931;42.260;23.116;2022-09-19T09:39:00;95368.47;;;28.05;32.65
7774;BME280;3931;42.260;23.116;2022-09-19T09:41:35;95361.09;;;27.89;32.96
7774;BME280;3931;42.260;23.116;2022-09-19T09:44:31;95364.59;;;27.61;31.88
7774;BME280;3931;42.260;23.116;2022-09-19T09:47:03;95367.00;;;26.32;33.45
7774;BME280;3931;42.260;23.116;2022-09-19T09:49:31;95358.38;;;27.63;32.11
7774;BME280;3931;42.260;23.116;2022-09-19T09:52:07;95351.97;;;27.49;31.02
7774;BME280;3931;42.260;23.116;2022-09-19T09:54:43;95347.91;;;28.20;30.92
7774;BME280;3931;42.260;23.116;2022-09-19T09:57:37;95349.00;;;27.75;31.89
7774;BME280;3931;42.260;23.116;2022-09-19T10:00:08;95341.53;;;27.18;32.46
7774;BME280;3931;42.260;23.116;2022-09-19T10:03:01;95328.50;;;28.39;31.80
7774;BME280;3931;42.260;23.116;2022-09-19T10:05:58;95331.19;;;28.16;31.99
7774;BME280;3931;42.260;23.116;2022-09-19T10:08:29;95314.31;;;28.18;31.72
7774;BME280;3931;42.260;23.116;2022-09-19T10:11:04;95316.81;;;28.22;30.96
7774;BME280;3931;42.260;23.116;2022-09-19T10:13:37;95308.28;;;28.50;31.03
7774;BME280;3931;42.260;23.116;2022-09-19T10:16:06;95304.59;;;28.42;31.93
7774;BME280;3931;42.260;23.116;2022-09-19T10:18:40;95303.00;;;28.90;33.02
7774;BME280;3931;42.260;23.116;2022-09-19T10:21:07;95289.59;;;29.79;31.55
7774;BME280;3931;42.260;23.116;2022-09-19T10:23:34;95291.50;;;29.99;28.28
7774;BME280;3931;42.260;23.116;2022-09-19T10:26:01;95274.41;;;29.84;28.56
7774;BME280;3931;42.260;23.116;2022-09-19T10:28:32;95284.66;;;29.13;30.59
7774;BME280;3931;42.260;23.116;2022-09-19T10:31:01;95278.38;;;30.26;30.91
7774;BME280;3931;42.260;23.116;2022-09-19T10:33:37;95286.88;;;29.43;28.14
7774;BME280;3931;42.260;23.116;2022-09-19T10:36:07;95273.06;;;30.07;27.15
7774;BME280;3931;42.260;23.116;2022-09-19T10:38:52;95279.19;;;28.15;27.87
7774;BME280;3931;42.260;23.116;2022-09-19T10:41:20;95263.66;;;28.17;26.62
7774;BME280;3931;42.260;23.116;2022-09-19T10:43:49;95266.22;;;27.24;26.70
7774;BME280;3931;42.260;23.116;2022-09-19T10:46:19;95258.75;;;27.34;26.95
7774;BME280;3931;42.260;23.116;2022-09-19T10:48:51;95253.34;;;28.06;27.37
7774;BME280;3931;42.260;23.116;2022-09-19T10:51:18;95245.16;;;28.02;27.08
7774;BME280;3931;42.260;23.116;2022-09-19T10:53:47;95235.19;;;27.68;27.49
7774;BME280;3931;42.260;23.116;2022-09-19T10:56:20;95244.72;;;27.50;27.84
7774;BME280;3931;42.260;23.116;2022-09-19T10:58:51;95242.13;;;28.00;27.79
7774;BME280;3931;42.260;23.116;2022-09-19T11:01:25;95244.19;;;27.79;27.85
7774;BME280;3931;42.260;23.116;2022-09-19T11:04:03;95241.63;;;27.89;28.02
7774;BME280;3931;42.260;23.116;2022-09-19T11:06:32;95229.84;;;27.85;27.55
7774;BME280;3931;42.260;23.116;2022-09-19T11:08:59;95227.22;;;28.51;27.44
7774;BME280;3931;42.260;23.116;2022-09-19T11:11:28;95222.97;;;28.01;27.15
7774;BME280;3931;42.260;23.116;2022-09-19T11:14:23;95204.16;;;27.70;28.01
7774;BME280;3931;42.260;23.116;2022-09-19T11:17:18;95207.63;;;28.75;27.48
7774;BME280;3931;42.260;23.116;2022-09-19T11:20:16;95203.56;;;28.20;26.95
7774;BME280;3931;42.260;23.116;2022-09-19T11:23:00;95199.22;;;29.21;26.97
7774;BME280;3931;42.260;23.116;2022-09-19T11:25:36;95204.00;;;28.39;26.62
7774;BME280;3931;42.260;23.116;2022-09-19T11:28:14;95194.22;;;28.55;27.45
7774;BME280;3931;42.260;23.116;2022-09-19T11:30:52;95194.66;;;27.67;28.65
7774;BME280;3931;42.260;23.116;2022-09-19T11:33:45;95191.44;;;29.21;27.11
7774;BME280;3931;42.260;23.116;2022-09-19T11:36:23;95193.69;;;28.57;27.52
7774;BME280;3931;42.260;23.116;2022-09-19T11:38:55;95193.75;;;28.00;27.73
7774;BME280;3931;42.260;23.116;2022-09-19T11:41:36;95191.78;;;28.59;27.58
7774;BME280;3931;42.260;23.116;2022-09-19T11:44:28;95202.59;;;27.40;28.48
7774;BME280;3931;42.260;23.116;2022-09-19T11:47:02;95193.97;;;27.82;28.82
7774;BME280;3931;42.260;23.116;2022-09-19T11:50:09;95181.03;;;28.30;28.86
7774;BME280;3931;42.260;23.116;2022-09-19T11:52:46;95173.28;;;28.88;28.14
7774;BME280;3931;42.260;23.116;2022-09-19T11:55:31;95185.66;;;29.06;28.11
7774;BME280;3931;42.260;23.116;2022-09-19T11:58:07;95174.94;;;28.69;28.37
7774;BME280;3931;42.260;23.116;2022-09-19T12:00:44;95180.19;;;29.16;27.93
7774;BME280;3931;42.260;23.116;2022-09-19T12:03:21;95165.53;;;29.04;27.71
7774;BME280;3931;42.260;23.116;2022-09-19T12:06:03;95164.19;;;28.98;28.38
7774;BME280;3931;42.260;23.116;2022-09-19T12:08:39;95167.31;;;28.21;28.83
7774;BME280;3931;42.260;23.116;2022-09-19T12:11:13;95170.72;;;29.21;28.22
7774;BME280;3931;42.260;23.116;2022-09-19T12:13:44;95161.53;;;29.00;27.82
7774;BME280;3931;42.260;23.116;2022-09-19T12:16:17;95173.78;;;28.64;28.21
7774;BME280;3931;42.260;23.116;2022-09-19T12:18:48;95161.31;;;28.82;27.73
7774;BME280;3931;42.260;23.116;2022-09-19T12:21:20;95155.97;;;28.71;28.72
7774;BME280;3931;42.260;23.116;2022-09-19T12:23:50;95163.34;;;28.67;28.91
7774;BME280;3931;42.260;23.116;2022-09-19T12:26:45;95175.72;;;27.70;29.40
7774;BME280;3931;42.260;23.116;2022-09-19T12:29:19;95152.34;;;28.20;28.87
7774;BME280;3931;42.260;23.116;2022-09-19T12:31:50;95150.38;;;29.92;27.15
7774;BME280;3931;42.260;23.116;2022-09-19T12:34:26;95147.00;;;28.60;28.45
7774;BME280;3931;42.260;23.116;2022-09-19T12:36:59;95131.97;;;29.48;28.61
7774;BME280;3931;42.260;23.116;2022-09-19T12:39:33;95148.84;;;28.50;29.46
7774;BME280;3931;42.260;23.116;2022-09-19T12:42:05;95135.22;;;28.12;29.78
7774;BME280;3931;42.260;23.116;2022-09-19T12:44:39;95129.09;;;29.63;29.08
7774;BME280;3931;42.260;23.116;2022-09-19T12:47:15;95128.50;;;29.87;27.93
7774;BME280;3931;42.260;23.116;2022-09-19T12:49:49;95127.41;;;29.30;28.29
7774;BME280;3931;42.260;23.116;2022-09-19T12:52:24;95132.56;;;28.58;29.11
7774;BME280;3931;42.260;23.116;2022-09-19T12:54:57;95138.63;;;28.54;29.86
7774;BME280;3931;42.260;23.116;2022-09-19T12:57:32;95134.81;;;29.18;29.28
7774;BME280;3931;42.260;23.116;2022-09-19T13:00:03;95128.34;;;28.51;29.71
7774;BME280;3931;42.260;23.116;2022-09-19T13:02:32;95138.69;;;28.69;28.65
7774;BME280;3931;42.260;23.116;2022-09-19T13:05:10;95128.94;;;28.06;29.74
7774;BME280;3931;42.260;23.116;2022-09-19T13:07:45;95120.50;;;28.29;29.52
7774;BME280;3931;42.260;23.116;2022-09-19T13:10:19;95116.56;;;29.36;28.62
7774;BME280;3931;42.260;23.116;2022-09-19T13:12:52;95102.88;;;29.34;28.24
7774;BME280;3931;42.260;23.116;2022-09-19T13:15:27;95092.81;;;29.26;29.01
7774;BME280;3931;42.260;23.116;2022-09-19T13:17:57;95115.38;;;28.35;29.33
7774;BME280;3931;42.260;23.116;2022-09-19T13:20:43;95108.03;;;29.21;29.21
7774;BME280;3931;42.260;23.116;2022-09-19T13:23:30;95099.84;;;28.36;29.89
7774;BME280;3931;42.260;23.116;2022-09-19T13:26:14;95094.28;;;28.89;29.86
7774;BME280;3931;42.260;23.116;2022-09-19T13:28:46;95095.84;;;29.05;29.07
7774;BME280;3931;42.260;23.116;2022-09-19T13:31:13;95097.19;;;29.27;29.23